Glendo, South Dakota
Current Conditions -  °F | °C
As of 4:53 AM on Sunday 21 Dec 2014 (Local Time) from KHEI Reporting Station
Clear Clear  
Wind Chill: 22°   Ceiling: Unl
Heat Index: 22°   Visibility: 10mi
Dew Point: 18°   Wind: 0mph
Humidity: 85%   Direction: NA
Pressure: 29.58"   Gusts: NA
Location:  45.6029°N, 102.827°W
Report Text: KHEI 211153Z AUTO 00000KT 10SM CLR M06/M08 A2958 RMK AO2 SLP045 T10561078 11017 21067 58035
Loading
Personal Weather Stations






























Interactive Weather Map New forecast layout! Learn more

10-Day Weather Forecast

Advertisements
Track Severe Weather on mobile